• Join FlightAware (Why Join?)
  • Login
  • US Flag 
05:35PM EST


 

Airport Tracker/Info


-or-


 

Live Flight TrackerFlight Track Log ✈ CES5800 ✈ 09-Sep-2013 ✈ ZHLY / LYA - ZPPP / KMG

Flight Track Log - Related Links

Times and Time Zones

All times are in EDT time to prevent confusion due to time zone crossing. See the CES5800 flight status page for this flight to view local times or setup timezone preferences in your user account.

Time Position Orientation Groundspeed Altitude Reporting Facility
EDT Latitude Longitude Course Direction KTS MPH feet Rate Location/Type
07:00AM 33.8332 111.3790 223° Southwest  Level Estimated
07:01AM 33.7571 111.2959 222° Southwest  Level Estimated
07:02AM 33.6810 111.2129 222° Southwest  Level Estimated
07:03AM 33.6049 111.1301 222° Southwest  Level Estimated
07:04AM 33.5287 111.0474 222° Southwest  Level Estimated
07:05AM 33.4524 110.9648 222° Southwest  Level Estimated
07:06AM 33.3761 110.8824 222° Southwest  Level Estimated
07:07AM 33.2998 110.8002 222° Southwest  Level Estimated
07:08AM 33.2234 110.7181 222° Southwest  Level Estimated
07:09AM 33.1469 110.6361 222° Southwest  Level Estimated
07:10AM 33.0704 110.5543 222° Southwest  Level Estimated
07:11AM 32.9938 110.4726 222° Southwest  Level Estimated
07:12AM 32.9172 110.3910 222° Southwest  Level Estimated
07:13AM 32.8405 110.3096 222° Southwest  Level Estimated
07:14AM 32.7637 110.2284 222° Southwest  Level Estimated
07:15AM 32.6870 110.1473 222° Southwest  Level Estimated
07:16AM 32.6101 110.0663 222° Southwest  Level Estimated
07:17AM 32.5332 109.9854 222° Southwest  Level Estimated
07:18AM 32.4563 109.9047 222° Southwest  Level Estimated
07:19AM 32.3793 109.8242 221° Southwest  Level Estimated
07:20AM 32.3022 109.7437 221° Southwest  Level Estimated
07:21AM 32.2251 109.6635 221° Southwest  Level Estimated
07:22AM 32.1480 109.5833 221° Southwest  Level Estimated
07:23AM 32.0708 109.5033 221° Southwest  Level Estimated
07:24AM 31.9935 109.4234 221° Southwest  Level Estimated
07:25AM 31.9162 109.3436 221° Southwest  Level Estimated
07:26AM 31.8389 109.2640 221° Southwest  Level Estimated
07:27AM 31.7615 109.1845 221° Southwest  Level Estimated
07:28AM 31.6840 109.1052 221° Southwest  Level Estimated
07:29AM 31.6065 109.0260 221° Southwest  Level Estimated
07:30AM 31.5290 108.9469 221° Southwest  Level Estimated
07:31AM 31.4514 108.8679 221° Southwest  Level Estimated
07:32AM 31.3738 108.7891 221° Southwest  Level Estimated
07:33AM 31.2961 108.7104 221° Southwest  Level Estimated
07:34AM 31.2183 108.6318 221° Southwest  Level Estimated
07:35AM 31.1405 108.5534 221° Southwest  Level Estimated
07:36AM 31.0627 108.4751 221° Southwest  Level Estimated
07:37AM 30.9848 108.3969 221° Southwest  Level Estimated
07:38AM 30.9069 108.3188 221° Southwest  Level Estimated
07:39AM 30.8289 108.2409 221° Southwest  Level Estimated
07:40AM 30.7509 108.1631 221° Southwest  Level Estimated
07:41AM 30.6728 108.0854 221° Southwest  Level Estimated
07:42AM 30.5947 108.0079 221° Southwest  Level Estimated
07:43AM 30.5166 107.9305 220° Southwest  Level Estimated
07:44AM 30.4384 107.8532 220° Southwest  Level Estimated
07:45AM 30.3601 107.7760 220° Southwest  Level Estimated
07:46AM 30.2818 107.6989 220° Southwest  Level Estimated
07:47AM 30.2035 107.6220 220° Southwest  Level Estimated
07:48AM 30.1251 107.5452 220° Southwest  Level Estimated
07:49AM 30.0467 107.4685 220° Southwest  Level Estimated
07:50AM 29.9682 107.3920 220° Southwest  Level Estimated
07:51AM 29.8897 107.3155 220° Southwest  Level Estimated
07:52AM 29.8111 107.2392 220° Southwest  Level Estimated
07:53AM 29.7325 107.1630 220° Southwest  Level Estimated
07:54AM 29.6539 107.0869 220° Southwest  Level Estimated
07:55AM 29.5752 107.0110 220° Southwest  Level Estimated
07:56AM 29.4964 106.9351 220° Southwest  Level Estimated
07:57AM 29.4176 106.8594 220° Southwest  Level Estimated
07:58AM 29.3388 106.7838 220° Southwest  Level Estimated
07:59AM 29.2600 106.7083 220° Southwest  Level Estimated
08:00AM 29.1810 106.6329 220° Southwest  Level Estimated
08:01AM 29.1021 106.5576 220° Southwest  Level Estimated
08:02AM 29.0231 106.4825 220° Southwest  Level Estimated
08:03AM 28.9441 106.4075 220° Southwest  Level Estimated
08:04AM 28.8650 106.3326 220° Southwest  Level Estimated
08:05AM 28.7859 106.2578 220° Southwest  Level Estimated
08:06AM 28.7067 106.1831 220° Southwest  Level Estimated
08:07AM 28.6275 106.1085 220° Southwest  Level Estimated
08:08AM 28.5483 106.0340 220° Southwest  Level Estimated
08:09AM 28.4690 105.9597 220° Southwest  Level Estimated
08:10AM 28.3897 105.8855 219° Southwest  Level Estimated
08:11AM 28.3103 105.8113 219° Southwest  Level Estimated
08:12AM 28.2309 105.7373 219° Southwest  Level Estimated
08:13AM 28.1515 105.6634 219° Southwest  Level Estimated
08:14AM 28.0720 105.5896 219° Southwest  Level Estimated
08:15AM 27.9925 105.5159 219° Southwest  Level Estimated
08:16AM 27.9129 105.4423 219° Southwest  Level Estimated
08:17AM 27.8333 105.3689 219° Southwest  Level Estimated
08:18AM 27.7537 105.2955 219° Southwest  Level Estimated
08:19AM 27.6740 105.2222 219° Southwest  Level Estimated
08:20AM 27.5943 105.1491 219° Southwest  Level Estimated
08:21AM 27.5146 105.0760 219° Southwest  Level Estimated
08:22AM 27.4348 105.0031 219° Southwest  Level Estimated
08:23AM 27.3549 104.9303 219° Southwest  Level Estimated
08:24AM 27.2751 104.8575 219° Southwest  Level Estimated
08:25AM 27.1952 104.7849 219° Southwest  Level Estimated
08:26AM 27.1152 104.7124 219° Southwest  Level Estimated
08:27AM 27.0353 104.6400 219° Southwest  Level Estimated
08:28AM 26.9552 104.5677 219° Southwest  Level Estimated
08:29AM 26.8752 104.4955 219° Southwest  Level Estimated
08:30AM 26.7951 104.4233 219° Southwest  Level Estimated
08:31AM 26.7150 104.3513 219° Southwest  Level Estimated
08:32AM 26.6348 104.2794 219° Southwest  Level Estimated
08:33AM 26.5546 104.2076 219° Southwest  Level Estimated
08:34AM 26.4744 104.1359 219° Southwest  Level Estimated
08:35AM 26.3941 104.0643 219° Southwest  Level Estimated
08:36AM 26.3138 103.9928 219° Southwest  Level Estimated
08:37AM 26.2335 103.9214 219° Southwest  Level Estimated
08:38AM 26.1531 103.8501 219° Southwest  Level Estimated
08:39AM 26.0727 103.7789 219° Southwest  Level Estimated
08:40AM 25.9923 103.7078 218° Southwest  Level Estimated
08:41AM 25.9118 103.6368 218° Southwest  Level Estimated
08:42AM 25.8313 103.5659 218° Southwest  Level Estimated
08:43AM 25.7507 103.4951 218° Southwest  Level Estimated
08:44AM 25.6702 103.4243 218° Southwest  Level Estimated
08:45AM 25.5895 103.3537 218° Southwest  Level Estimated
08:46AM 25.5089 103.2832 218° Southwest  Level Estimated
08:47AM 25.4282 103.2127 218° Southwest  Level Estimated
08:48AM 25.3475 103.1424 218° Southwest  Level Estimated
08:49AM 25.2667 103.0722 218° Southwest  Level Estimated
08:50AM 25.1853 103.0014 218° Southwest  Level Estimated
08:51AM 25.1038 102.9308 218° Southwest  Level Estimated
08:52AM 25.1019 102.9292 218° Southwest  Level Estimated
08:53AM 25.1019 102.9292 326° Northwest  Level Estimated
08:54AM 25.1019 102.9292 326° Northwest  Level Estimated
08:55AM 25.1019 102.9292 326° Northwest  Level Estimated
08:56AM 25.1019 102.9292 326° Northwest  Level Estimated
08:57AM 25.1019 102.9292 326° Northwest  Level Estimated
08:58AM 25.1019 102.9292 326° Northwest  Level Estimated
08:59AM 25.1019 102.9292 326° Northwest  Level Estimated
09:00AM 25.1019 102.9292 326° Northwest  Level Estimated
09:01AM 25.1019 102.9292 326° Northwest  Level Estimated
09:02AM 25.1019 102.9292 326° Northwest  Level Estimated
09:03AM 25.1019 102.9292 326° Northwest  Level Estimated
09:04AM 25.1019 102.9292 326° Northwest  Level Estimated
09:05AM 25.1019 102.9292 326° Northwest  Level Estimated
09:06AM 25.1019 102.9292 326° Northwest  Level Estimated